Torm Republican — OYNE2 — position and weather

sailwx.info

Track history (hours):
 
Tides and Currents Weather Stations Pressure Air Temp Water Temp Dewpoint Dewpoint Depression Visibility Wind Speed Wind Dir Waves Ship Positions

Torm Republican

Last reported at 2014-Aug-27 12:33 UTC. Time now 2014-Aug-27 13:13 UTC.
Position N 37°59' W 072°36'.

Length 183 m; draft 11.8 m.

Type: Ship (hazmat cat A). MMSI: 220560000.

Date/timePositionNaut miles runAvg speedWind from/ knotsBaromVisibWave heightAir tempDewpointWater temp
2014-Aug-27 12:33N 37°59' W 072°36'1 0.7
2014-Aug-27 11:33N 37°59' W 072°35'1 0.6
2014-Aug-27 10:32N 37°59' W 072°34'0 0.5
2014-Aug-27 09:34N 37°59' W 072°34'0 0.4
2014-Aug-27 08:32N 37°60' W 072°33'0 0.4
2014-Aug-27 07:33N 37°60' W 072°33'0 0.4
2014-Aug-27 06:33N 37°60' W 072°32'1 0.5
2014-Aug-27 05:33N 37°60' W 072°32'0 0.5
2014-Aug-27 04:33N 37°60' W 072°31'4 4.0
2014-Aug-27 03:33N 38°00' W 072°36'8 7.3
2014-Aug-27 02:31N 38°02' W 072°46'52 7.2
2014-Aug-26 19:23N 38°13' W 073°50'17 7.5
2014-Aug-26 17:09N 38°17' W 074°11'5 7.8
2014-Aug-26 16:28N 38°18' W 074°17'9 7.8
2014-Aug-26 15:20N 38°20' W 074°28'6 7.4
2014-Aug-26 14:33N 38°22' W 074°35'7 7.4
2014-Aug-26 13:33N 38°26' W 074°43'7 7.3
2014-Aug-26 12:33N 38°32' W 074°48'8 7.3
2014-Aug-26 11:29N 38°38' W 074°54'7 7.4
2014-Aug-26 10:33N 38°44' W 074°59'11 8.3
2014-Aug-26 09:15N 38°54' W 075°05'7 9.7
2014-Aug-26 08:33N 39°00' W 075°09'51 8.4
2014-Aug-26 02:27N 39°51' W 075°20'8 7.6
2014-Aug-26 01:24N 39°53' W 075°11'  
2014-Aug-23 03:28N 38°38' W 074°46'0 0.0
2014-Aug-23 02:31N 38°38' W 074°46'0 0.0
2014-Aug-23 01:31N 38°38' W 074°46'0 0.0
2014-Aug-22 03:15N 38°38' W 074°45'0 0.0
2014-Aug-22 02:33N 38°38' W 074°45'0 0.0
2014-Aug-22 01:24N 38°38' W 074°45'0 0.0
2014-Aug-22 00:06N 38°38' W 074°46'0 0.0
2014-Aug-21 23:33N 38°38' W 074°46'0 0.0
2014-Aug-21 22:09N 38°38' W 074°46'0 0.0
2014-Aug-21 20:18N 38°38' W 074°46'0 0.0
2014-Aug-21 14:30N 38°38' W 074°46'0 0.0
2014-Aug-21 13:18N 38°38' W 074°46'0 0.0
2014-Aug-21 12:24N 38°38' W 074°46'0 0.0
2014-Aug-21 11:27N 38°38' W 074°46'0 0.0
2014-Aug-21 10:33N 38°38' W 074°46'0 0.0
2014-Aug-21 09:33N 38°38' W 074°46'0 0.0
2014-Aug-21 08:17N 38°38' W 074°46'0 0.0
2014-Aug-21 07:32N 38°38' W 074°46'0 0.0
2014-Aug-21 06:29N 38°38' W 074°46'0 0.0
2014-Aug-21 05:17N 38°38' W 074°46'0 0.0
2014-Aug-21 04:29N 38°38' W 074°46'0 0.0
2014-Aug-21 03:32N 38°38' W 074°46'0 0.0
2014-Aug-21 02:32N 38°38' W 074°46'0 0.0
2014-Aug-21 01:29N 38°38' W 074°46'0 0.0
2014-Aug-21 00:14N 38°38' W 074°46'0 0.0
2014-Aug-20 23:32N 38°38' W 074°46'0 0.0
2014-Aug-20 22:32N 38°38' W 074°46'0 0.0
2014-Aug-20 16:11N 38°38' W 074°46'0 0.0
2014-Aug-20 15:26N 38°38' W 074°46'0 0.1
2014-Aug-20 13:24N 38°38' W 074°45'6 7.1
2014-Aug-20 12:33N 38°40' W 074°38'1211.9
2014-Aug-20 11:33N 38°45' W 074°24'1312.4
2014-Aug-20 10:28N 38°58' W 074°17'1512.4
2014-Aug-20 09:14N 39°12' W 074°10'812.4
2014-Aug-20 08:33N 39°19' W 074°05'1212.4
2014-Aug-20 07:33N 39°31' W 073°58'1212.1
2014-Aug-20 06:33N 39°42' W 073°52'1211.9
2014-Aug-20 05:33N 39°54' W 073°51'1312.2
2014-Aug-20 04:28N 40°07' W 073°50'1112.1
2014-Aug-20 03:34N 40°18' W 073°49'1111.4
2014-Aug-20 02:34N 40°28' W 073°42'5 4.4
2014-Aug-20 01:31N 40°31' W 073°37'0 0.0
2014-Aug-20 00:31N 40°31' W 073°37'0 0.0
2014-Aug-19 23:31N 40°31' W 073°37'0 0.0
2014-Aug-19 21:31N 40°31' W 073°37'0 0.0
2014-Aug-19 20:31N 40°31' W 073°37'0 0.0
2014-Aug-19 16:31N 40°31' W 073°38'0 0.0
2014-Aug-19 15:28N 40°31' W 073°38'0 0.0
2014-Aug-19 14:19N 40°31' W 073°38'0 0.0
2014-Aug-19 13:28N 40°31' W 073°38'0 0.1
2014-Aug-19 12:28N 40°31' W 073°37'0 0.1
2014-Aug-19 11:31N 40°31' W 073°37'0 0.0
2014-Aug-19 10:28N 40°31' W 073°37'0 0.0
2014-Aug-19 09:31N 40°31' W 073°37'0 0.0
2014-Aug-19 08:28N 40°31' W 073°37'0 0.0
2014-Aug-19 07:31N 40°31' W 073°37'0 0.1
2014-Aug-19 06:31N 40°31' W 073°37'0 0.0
2014-Aug-19 05:31N 40°31' W 073°37'0 0.0
2014-Aug-19 04:34N 40°31' W 073°37'0 0.0
2014-Aug-19 03:30N 40°31' W 073°37'0 0.0
2014-Aug-19 02:33N 40°31' W 073°37'0 0.0
2014-Aug-19 01:33N 40°31' W 073°37'0 0.0
2014-Aug-19 00:33N 40°31' W 073°37'0 0.0
2014-Aug-18 23:33N 40°31' W 073°37'0 0.0
2014-Aug-18 22:33N 40°31' W 073°37'0 0.0
2014-Aug-18 20:30N 40°31' W 073°37'0 0.0
2014-Aug-18 19:33N 40°31' W 073°37'0 0.0
2014-Aug-18 18:33N 40°31' W 073°37'0 0.0
2014-Aug-18 17:27N 40°31' W 073°37'0 0.0
2014-Aug-18 16:33N 40°31' W 073°37'0 0.0
2014-Aug-18 15:33N 40°31' W 073°37'0 0.0
2014-Aug-18 14:33N 40°31' W 073°37'0 0.1
2014-Aug-18 13:30N 40°31' W 073°37'0 0.0
2014-Aug-18 12:30N 40°31' W 073°37'0 0.0
2014-Aug-18 11:33N 40°31' W 073°37'0 0.0
2014-Aug-18 10:33N 40°31' W 073°37'0 0.0
2014-Aug-18 09:30N 40°31' W 073°37'0 0.0
2014-Aug-18 08:33N 40°31' W 073°37'0 0.0
2014-Aug-18 07:30N 40°31' W 073°37'0 0.0
2014-Aug-18 06:33N 40°31' W 073°37'0 0.0
2014-Aug-18 05:30N 40°31' W 073°37'0 0.0
2014-Aug-18 04:33N 40°31' W 073°37'0 0.0
2014-Aug-18 03:30N 40°31' W 073°37'0 0.0
2014-Aug-18 02:30N 40°31' W 073°37'0 0.0
2014-Aug-18 01:30N 40°31' W 073°37'0 0.0
2014-Aug-18 00:30N 40°31' W 073°37'0 0.0
2014-Aug-17 18:33N 40°31' W 073°37'0 0.0
2014-Aug-17 17:33N 40°31' W 073°37'0 0.0
2014-Aug-17 16:33N 40°31' W 073°37'0 0.0
2014-Aug-17 15:17N 40°31' W 073°37'0 0.0
2014-Aug-17 14:32N 40°31' W 073°37'0 0.0
2014-Aug-17 13:26N 40°31' W 073°37'  
Track history (hours):
 
Tides and Currents Weather Stations Pressure Air Temp Water Temp Dewpoint Dewpoint Depression Visibility Wind Speed Wind Dir Waves Ship Positions

Torm Republican

Last reported at 2014-Aug-27 12:33 UTC. Time now 2014-Aug-27 13:13 UTC.
Position N 37°59' W 072°36'.

Length 183 m; draft 11.8 m.

Type: Ship (hazmat cat A). MMSI: 220560000.

Date/timePositionNaut miles runAvg speedWind from/ knotsBaromVisibWave heightAir tempDewpointWater temp
2014-Aug-27 12:33N 37°59' W 072°36'1 0.7
2014-Aug-27 11:33N 37°59' W 072°35'1 0.6
2014-Aug-27 10:32N 37°59' W 072°34'0 0.5
2014-Aug-27 09:34N 37°59' W 072°34'0 0.4
2014-Aug-27 08:32N 37°60' W 072°33'0 0.4
2014-Aug-27 07:33N 37°60' W 072°33'0 0.4
2014-Aug-27 06:33N 37°60' W 072°32'1 0.5
2014-Aug-27 05:33N 37°60' W 072°32'0 0.5
2014-Aug-27 04:33N 37°60' W 072°31'4 4.0
2014-Aug-27 03:33N 38°00' W 072°36'8 7.3
2014-Aug-27 02:31N 38°02' W 072°46'52 7.2
2014-Aug-26 19:23N 38°13' W 073°50'17 7.5
2014-Aug-26 17:09N 38°17' W 074°11'5 7.8
2014-Aug-26 16:28N 38°18' W 074°17'9 7.8
2014-Aug-26 15:20N 38°20' W 074°28'6 7.4
2014-Aug-26 14:33N 38°22' W 074°35'7 7.4
2014-Aug-26 13:33N 38°26' W 074°43'7 7.3
2014-Aug-26 12:33N 38°32' W 074°48'8 7.3
2014-Aug-26 11:29N 38°38' W 074°54'7 7.4
2014-Aug-26 10:33N 38°44' W 074°59'11 8.3
2014-Aug-26 09:15N 38°54' W 075°05'7 9.7
2014-Aug-26 08:33N 39°00' W 075°09'51 8.4
2014-Aug-26 02:27N 39°51' W 075°20'8 7.6
2014-Aug-26 01:24N 39°53' W 075°11'  
2014-Aug-23 03:28N 38°38' W 074°46'0 0.0
2014-Aug-23 02:31N 38°38' W 074°46'0 0.0
2014-Aug-23 01:31N 38°38' W 074°46'0 0.0
2014-Aug-22 03:15N 38°38' W 074°45'0 0.0
2014-Aug-22 02:33N 38°38' W 074°45'0 0.0
2014-Aug-22 01:24N 38°38' W 074°45'0 0.0
2014-Aug-22 00:06N 38°38' W 074°46'0 0.0
2014-Aug-21 23:33N 38°38' W 074°46'0 0.0
2014-Aug-21 22:09N 38°38' W 074°46'0 0.0
2014-Aug-21 20:18N 38°38' W 074°46'0 0.0
2014-Aug-21 14:30N 38°38' W 074°46'0 0.0
2014-Aug-21 13:18N 38°38' W 074°46'0 0.0
2014-Aug-21 12:24N 38°38' W 074°46'0 0.0
2014-Aug-21 11:27N 38°38' W 074°46'0 0.0
2014-Aug-21 10:33N 38°38' W 074°46'0 0.0
2014-Aug-21 09:33N 38°38' W 074°46'0 0.0
2014-Aug-21 08:17N 38°38' W 074°46'0 0.0
2014-Aug-21 07:32N 38°38' W 074°46'0 0.0
2014-Aug-21 06:29N 38°38' W 074°46'0 0.0
2014-Aug-21 05:17N 38°38' W 074°46'0 0.0
2014-Aug-21 04:29N 38°38' W 074°46'0 0.0
2014-Aug-21 03:32N 38°38' W 074°46'0 0.0
2014-Aug-21 02:32N 38°38' W 074°46'0 0.0
2014-Aug-21 01:29N 38°38' W 074°46'0 0.0
2014-Aug-21 00:14N 38°38' W 074°46'0 0.0
2014-Aug-20 23:32N 38°38' W 074°46'0 0.0
2014-Aug-20 22:32N 38°38' W 074°46'0 0.0
2014-Aug-20 16:11N 38°38' W 074°46'0 0.0
2014-Aug-20 15:26N 38°38' W 074°46'0 0.1
2014-Aug-20 13:24N 38°38' W 074°45'6 7.1
2014-Aug-20 12:33N 38°40' W 074°38'1211.9
2014-Aug-20 11:33N 38°45' W 074°24'1312.4
2014-Aug-20 10:28N 38°58' W 074°17'1512.4
2014-Aug-20 09:14N 39°12' W 074°10'812.4
2014-Aug-20 08:33N 39°19' W 074°05'1212.4
2014-Aug-20 07:33N 39°31' W 073°58'1212.1
2014-Aug-20 06:33N 39°42' W 073°52'1211.9
2014-Aug-20 05:33N 39°54' W 073°51'1312.2
2014-Aug-20 04:28N 40°07' W 073°50'1112.1
2014-Aug-20 03:34N 40°18' W 073°49'1111.4
2014-Aug-20 02:34N 40°28' W 073°42'5 4.4
2014-Aug-20 01:31N 40°31' W 073°37'0 0.0
2014-Aug-20 00:31N 40°31' W 073°37'0 0.0
2014-Aug-19 23:31N 40°31' W 073°37'0 0.0
2014-Aug-19 21:31N 40°31' W 073°37'0 0.0
2014-Aug-19 20:31N 40°31' W 073°37'0 0.0
2014-Aug-19 16:31N 40°31' W 073°38'0 0.0
2014-Aug-19 15:28N 40°31' W 073°38'0 0.0
2014-Aug-19 14:19N 40°31' W 073°38'0 0.0
2014-Aug-19 13:28N 40°31' W 073°38'0 0.1
2014-Aug-19 12:28N 40°31' W 073°37'0 0.1
2014-Aug-19 11:31N 40°31' W 073°37'0 0.0
2014-Aug-19 10:28N 40°31' W 073°37'0 0.0
2014-Aug-19 09:31N 40°31' W 073°37'0 0.0
2014-Aug-19 08:28N 40°31' W 073°37'0 0.0
2014-Aug-19 07:31N 40°31' W 073°37'0 0.1
2014-Aug-19 06:31N 40°31' W 073°37'0 0.0
2014-Aug-19 05:31N 40°31' W 073°37'0 0.0
2014-Aug-19 04:34N 40°31' W 073°37'0 0.0
2014-Aug-19 03:30N 40°31' W 073°37'0 0.0
2014-Aug-19 02:33N 40°31' W 073°37'0 0.0
2014-Aug-19 01:33N 40°31' W 073°37'0 0.0
2014-Aug-19 00:33N 40°31' W 073°37'0 0.0
2014-Aug-18 23:33N 40°31' W 073°37'0 0.0
2014-Aug-18 22:33N 40°31' W 073°37'0 0.0
2014-Aug-18 20:30N 40°31' W 073°37'0 0.0
2014-Aug-18 19:33N 40°31' W 073°37'0 0.0
2014-Aug-18 18:33N 40°31' W 073°37'0 0.0
2014-Aug-18 17:27N 40°31' W 073°37'0 0.0
2014-Aug-18 16:33N 40°31' W 073°37'0 0.0
2014-Aug-18 15:33N 40°31' W 073°37'0 0.0
2014-Aug-18 14:33N 40°31' W 073°37'0 0.1
2014-Aug-18 13:30N 40°31' W 073°37'0 0.0
2014-Aug-18 12:30N 40°31' W 073°37'0 0.0
2014-Aug-18 11:33N 40°31' W 073°37'0 0.0
2014-Aug-18 10:33N 40°31' W 073°37'0 0.0
2014-Aug-18 09:30N 40°31' W 073°37'0 0.0
2014-Aug-18 08:33N 40°31' W 073°37'0 0.0
2014-Aug-18 07:30N 40°31' W 073°37'0 0.0
2014-Aug-18 06:33N 40°31' W 073°37'0 0.0
2014-Aug-18 05:30N 40°31' W 073°37'0 0.0
2014-Aug-18 04:33N 40°31' W 073°37'0 0.0
2014-Aug-18 03:30N 40°31' W 073°37'0 0.0
2014-Aug-18 02:30N 40°31' W 073°37'0 0.0
2014-Aug-18 01:30N 40°31' W 073°37'0 0.0
2014-Aug-18 00:30N 40°31' W 073°37'0 0.0
2014-Aug-17 18:33N 40°31' W 073°37'0 0.0
2014-Aug-17 17:33N 40°31' W 073°37'0 0.0
2014-Aug-17 16:33N 40°31' W 073°37'0 0.0
2014-Aug-17 15:17N 40°31' W 073°37'0 0.0
2014-Aug-17 14:32N 40°31' W 073°37'0 0.0
2014-Aug-17 13:26N 40°31' W 073°37'  

Dump ship's entire track history